Time;durP1;ratioP1;P1;durP2;ratioP2;P2;SDS_P1;SDS_P2;PMS_P1;PMS_P2;Temp;Humidity;BMP_temperature;BMP_pressure;BME280_temperature;BME280_humidity;BME280_pressure;Samples;Min_cycle;Max_cycle;Signal;HPM_P1;HPM_P2
2020/12/14 00:00:17;;;;;;;4.30;1.50;;;23.60;70.80;;;;;;5113140;28;20026;-60
2020/12/14 00:02:45;;;;;;;4.88;1.50;;;23.60;70.30;;;;;;5113289;28;20096;-63
2020/12/14 00:05:14;;;;;;;5.75;1.55;;;23.50;70.30;;;;;;5113114;28;20102;-59
2020/12/14 00:07:41;;;;;;;6.07;2.03;;;23.50;70.30;;;;;;5113206;28;20033;-61
2020/12/14 00:10:09;;;;;;;5.22;1.80;;;23.50;70.40;;;;;;5112892;28;20087;-61
2020/12/14 00:12:37;;;;;;;5.22;1.67;;;23.50;70.60;;;;;;5112770;28;20379;-55
2020/12/14 00:15:06;;;;;;;4.05;1.58;;;23.40;70.60;;;;;;5113145;28;20024;-62
2020/12/14 00:17:33;;;;;;;4.00;1.30;;;23.40;70.70;;;;;;5112669;28;20410;-61
2020/12/14 00:20:01;;;;;;;6.75;1.60;;;23.40;70.80;;;;;;5113018;28;20023;-63
2020/12/14 00:22:33;;;;;;;4.35;1.30;;;23.40;70.90;;;;;;5113239;28;20028;-59
2020/12/14 00:25:03;;;;;;;4.28;1.30;;;23.40;70.90;;;;;;5112608;28;20023;-56
2020/12/14 00:27:30;;;;;;;4.88;1.48;;;23.40;70.90;;;;;;5112646;28;20029;-59
2020/12/14 00:29:57;;;;;;;5.13;1.55;;;23.40;71.10;;;;;;5112868;28;20466;-62
2020/12/14 00:32:25;;;;;;;5.28;1.33;;;23.40;71.00;;;;;;5112602;28;20023;-60
2020/12/14 00:34:53;;;;;;;5.75;1.60;;;23.40;71.10;;;;;;5112851;28;20444;-54
2020/12/14 00:37:21;;;;;;;4.93;1.42;;;23.40;71.10;;;;;;5094186;28;20114;-57
2020/12/14 00:39:49;;;;;;;4.45;1.50;;;23.40;71.20;;;;;;5109509;28;20062;-56
2020/12/14 00:42:16;;;;;;;4.80;1.75;;;23.40;71.10;;;;;;5111969;28;20468;-55
2020/12/14 00:44:44;;;;;;;4.35;1.60;;;23.40;71.00;;;;;;5094793;28;20366;-58
2020/12/14 00:47:11;;;;;;;3.35;1.27;;;23.40;70.90;;;;;;5112378;28;20030;-57
2020/12/14 00:49:38;;;;;;;5.65;2.08;;;23.50;70.90;;;;;;5112534;28;20040;-59
2020/12/14 00:52:06;;;;;;;2.65;1.13;;;23.50;70.50;;;;;;5112743;28;20077;-60
2020/12/14 00:54:34;;;;;;;5.13;1.60;;;23.50;70.20;;;;;;5112616;28;20119;-59
2020/12/14 00:57:01;;;;;;;7.68;1.60;;;23.60;70.50;;;;;;5112920;28;20030;-60
2020/12/14 00:59:28;;;;;;;6.22;1.80;;;23.60;70.00;;;;;;5112213;28;20359;-58
2020/12/14 01:01:56;;;;;;;5.63;2.03;;;23.70;69.60;;;;;;5112112;28;20030;-61
2020/12/14 01:04:24;;;;;;;6.13;1.45;;;23.70;70.00;;;;;;5112203;28;20036;-56
2020/12/14 01:06:55;;;;;;;5.43;1.90;;;23.70;69.90;;;;;;5112474;28;20023;-54
2020/12/14 01:09:23;;;;;;;5.43;1.63;;;23.80;69.50;;;;;;5112221;28;20471;-58
2020/12/14 01:11:50;;;;;;;5.07;1.70;;;23.80;69.20;;;;;;5112059;28;20481;-59
2020/12/14 01:14:18;;;;;;;5.53;1.63;;;23.90;68.60;;;;;;5112459;28;20399;-58
2020/12/14 01:16:47;;;;;;;6.78;1.60;;;23.90;68.80;;;;;;5111864;28;20023;-58
2020/12/14 01:19:15;;;;;;;8.35;1.75;;;23.90;68.60;;;;;;5111547;28;20043;-60
2020/12/14 01:21:43;;;;;;;4.72;1.33;;;23.90;67.50;;;;;;5111840;28;20055;-58
2020/12/14 01:24:10;;;;;;;4.57;1.55;;;23.90;68.80;;;;;;5111016;28;20023;-54
2020/12/14 01:26:38;;;;;;;4.97;1.70;;;23.90;68.10;;;;;;5111693;28;20023;-59
2020/12/14 01:29:05;;;;;;;7.97;1.95;;;23.90;69.00;;;;;;5112210;28;20081;-62
2020/12/14 01:31:32;;;;;;;4.95;1.42;;;23.90;68.10;;;;;;5093880;28;20036;-59
2020/12/14 01:34:00;;;;;;;7.35;2.15;;;23.90;68.00;;;;;;5111917;28;20098;-59
2020/12/14 01:36:27;;;;;;;6.57;2.38;;;23.90;68.50;;;;;;5112053;28;20084;-59
2020/12/14 01:38:55;;;;;;;6.63;1.38;;;23.90;68.50;;;;;;5112072;28;20024;-60
2020/12/14 01:41:22;;;;;;;6.60;1.98;;;23.90;69.30;;;;;;5094019;28;20016;-63
2020/12/14 01:43:49;;;;;;;7.75;2.15;;;23.90;68.70;;;;;;5111959;28;20103;-63
2020/12/14 01:46:30;;;;;;;8.23;1.95;;;23.90;68.80;;;;;;5111282;28;20020;-58
2020/12/14 01:49:00;;;;;;;5.85;2.00;;;23.90;69.30;;;;;;5105445;28;20435;-58
2020/12/14 01:51:31;;;;;;;5.70;1.40;;;24.00;68.90;;;;;;5107977;28;20119;-60
2020/12/14 01:54:03;;;;;;;4.32;1.50;;;24.10;68.80;;;;;;5110787;28;20057;-54
2020/12/14 01:56:30;;;;;;;5.57;1.73;;;24.10;68.90;;;;;;5105824;28;20724;-60
2020/12/14 01:58:57;;;;;;;6.80;2.00;;;24.10;68.80;;;;;;5108274;28;20299;-54
2020/12/14 02:01:25;;;;;;;3.78;1.58;;;24.20;68.40;;;;;;5108501;28;20492;-58
2020/12/14 02:03:52;;;;;;;7.78;1.98;;;24.20;68.60;;;;;;5089797;28;20030;-60
2020/12/14 02:06:19;;;;;;;9.13;2.63;;;24.30;68.40;;;;;;5106297;28;20039;-63
2020/12/14 02:08:47;;;;;;;7.68;1.88;;;24.30;68.00;;;;;;5107711;28;20113;-60
2020/12/14 02:11:14;;;;;;;6.60;2.10;;;24.30;68.20;;;;;;5108441;28;20129;-61
2020/12/14 02:13:41;;;;;;;8.27;1.63;;;24.40;68.10;;;;;;5108303;28;20031;-59
2020/12/14 02:16:09;;;;;;;6.53;1.88;;;24.40;68.10;;;;;;5104533;28;20094;-62
2020/12/14 02:18:36;;;;;;;4.75;1.80;;;24.40;68.00;;;;;;5108191;28;20420;-61
2020/12/14 02:21:03;;;;;;;7.18;2.45;;;24.50;68.10;;;;;;5108005;28;20354;-62
2020/12/14 02:23:32;;;;;;;5.50;1.98;;;24.50;68.00;;;;;;5108427;28;20020;-62
2020/12/14 02:25:59;;;;;;;6.10;1.80;;;24.50;68.00;;;;;;5105123;28;20081;-62
2020/12/14 02:28:39;;;;;;;4.10;1.30;;;24.50;67.80;;;;;;5108758;28;20412;-61
2020/12/14 02:31:07;;;;;;;8.18;1.75;;;24.50;67.90;;;;;;5106081;28;20043;-60
2020/12/14 02:33:34;;;;;;;11.75;3.05;;;24.50;67.80;;;;;;5108295;28;20031;-55
2020/12/14 02:36:02;;;;;;;4.20;2.00;;;24.60;67.90;;;;;;5105094;28;20035;-55
2020/12/14 02:38:29;;;;;;;6.75;2.00;;;24.60;67.90;;;;;;5109951;28;20027;-59
2020/12/14 02:40:57;;;;;;;7.63;2.20;;;24.60;68.10;;;;;;5112321;28;20365;-58
2020/12/14 02:43:24;;;;;;;7.47;1.58;;;24.60;68.10;;;;;;5113276;27;20028;-60
2020/12/14 02:45:53;;;;;;;6.43;2.08;;;24.70;68.10;;;;;;5108173;28;20019;-61
2020/12/14 02:48:20;;;;;;;3.95;1.45;;;24.70;67.90;;;;;;5091807;28;20482;-60
2020/12/14 02:50:47;;;;;;;7.68;1.98;;;24.70;68.00;;;;;;5112015;28;20047;-59
2020/12/14 02:53:15;;;;;;;5.57;2.13;;;24.70;67.60;;;;;;5111071;28;20023;-56
2020/12/14 02:55:42;;;;;;;8.77;2.25;;;24.70;67.50;;;;;;5108510;28;20175;-56
2020/12/14 02:58:09;;;;;;;8.70;1.90;;;24.70;67.60;;;;;;5112193;28;20058;-56
2020/12/14 03:00:37;;;;;;;6.80;2.22;;;24.70;67.50;;;;;;5092947;28;20035;-59
2020/12/14 03:03:04;;;;;;;4.30;1.73;;;24.70;67.70;;;;;;5111470;28;20055;-59
2020/12/14 03:05:31;;;;;;;7.50;2.10;;;24.70;67.70;;;;;;5113814;28;20024;-62
2020/12/14 03:07:59;;;;;;;6.80;2.28;;;24.70;67.80;;;;;;5113615;28;20019;-59
2020/12/14 03:10:29;;;;;;;8.65;1.83;;;24.80;68.00;;;;;;5112589;28;20039;-60
2020/12/14 03:12:56;;;;;;;9.70;2.42;;;24.80;68.10;;;;;;5114724;28;20023;-57
2020/12/14 03:15:23;;;;;;;4.88;2.03;;;24.90;67.70;;;;;;5113811;28;20107;-55
2020/12/14 03:17:51;;;;;;;6.13;2.22;;;24.90;67.70;;;;;;5113084;28;20108;-60
2020/12/14 03:20:18;;;;;;;11.60;2.22;;;25.00;67.30;;;;;;5114105;28;20035;-58
2020/12/14 03:22:45;;;;;;;18.35;3.40;;;25.00;66.80;;;;;;5114559;28;20490;-60
2020/12/14 03:25:13;;;;;;;13.40;3.58;;;25.00;66.70;;;;;;5113806;28;20110;-57
2020/12/14 03:27:40;;;;;;;14.82;3.25;;;25.00;66.70;;;;;;5113955;28;20027;-61
2020/12/14 03:30:07;;;;;;;12.40;2.88;;;24.90;67.10;;;;;;5105328;27;20481;-61
2020/12/14 03:32:35;;;;;;;13.35;3.33;;;24.90;67.20;;;;;;5093389;28;20019;-62
2020/12/14 03:35:02;;;;;;;14.70;3.33;;;24.90;67.40;;;;;;5110642;28;20035;-62
2020/12/14 03:37:29;;;;;;;10.55;3.22;;;24.80;67.50;;;;;;5109246;27;20027;-60
2020/12/14 03:39:57;;;;;;;10.50;2.70;;;24.80;67.70;;;;;;5110200;28;20023;-52
2020/12/14 03:42:24;;;;;;;11.75;2.97;;;24.80;67.80;;;;;;5106769;28;20088;-56
2020/12/14 03:44:51;;;;;;;8.98;2.83;;;24.80;67.90;;;;;;5109975;28;20363;-55
2020/12/14 03:47:19;;;;;;;10.13;2.55;;;24.80;68.00;;;;;;5109702;28;20070;-56
2020/12/14 03:49:46;;;;;;;15.15;2.80;;;24.80;68.30;;;;;;5110344;28;20137;-59
2020/12/14 03:52:14;;;;;;;15.05;3.58;;;24.80;68.40;;;;;;5088258;28;20031;-57
2020/12/14 03:54:41;;;;;;;8.57;2.72;;;24.80;68.20;;;;;;5091735;28;20161;-56
2020/12/14 03:57:09;;;;;;;9.15;2.70;;;24.80;68.30;;;;;;5110145;28;20030;-58
2020/12/14 03:59:36;;;;;;;11.40;3.05;;;24.80;68.50;;;;;;5107491;28;20359;-56
2020/12/14 04:02:05;;;;;;;10.18;2.65;;;24.80;68.40;;;;;;5106844;28;20023;-61
2020/12/14 04:04:32;;;;;;;7.57;2.55;;;24.80;68.40;;;;;;5110415;28;20030;-62
2020/12/14 04:06:59;;;;;;;13.52;2.83;;;24.80;68.40;;;;;;5110255;28;20028;-54
2020/12/14 04:09:27;;;;;;;15.90;3.40;;;24.80;68.50;;;;;;5109866;28;20023;-61
2020/12/14 04:11:54;;;;;;;13.75;3.35;;;24.80;68.50;;;;;;5108939;28;20041;-62
2020/12/14 04:14:22;;;;;;;10.55;2.83;;;24.90;68.30;;;;;;5108878;28;20482;-53
2020/12/14 04:16:53;;;;;;;11.68;3.10;;;24.90;68.20;;;;;;5110853;28;20046;-62
2020/12/14 04:19:23;;;;;;;15.25;2.83;;;24.90;68.20;;;;;;5109998;28;20401;-55
2020/12/14 04:21:52;;;;;;;14.10;2.95;;;24.90;68.20;;;;;;5110010;28;20084;-55
2020/12/14 04:24:19;;;;;;;10.25;2.95;;;25.00;68.20;;;;;;5106741;28;20020;-59
2020/12/14 04:26:52;;;;;;;12.18;2.95;;;24.90;68.10;;;;;;5109198;28;20023;-56
2020/12/14 04:29:21;;;;;;;10.45;3.03;;;24.90;68.20;;;;;;5109367;28;20466;-60
2020/12/14 04:31:51;;;;;;;10.18;2.70;;;24.90;68.00;;;;;;5109292;28;20028;-57
2020/12/14 04:34:19;;;;;;;9.48;2.70;;;24.90;68.00;;;;;;5088013;28;20031;-61
2020/12/14 04:36:48;;;;;;;12.30;3.08;;;24.90;68.10;;;;;;5109170;28;20359;-59
2020/12/14 04:39:16;;;;;;;9.07;2.97;;;24.90;68.30;;;;;;5109449;28;20440;-60
2020/12/14 04:41:43;;;;;;;10.55;3.30;;;24.90;68.60;;;;;;5108695;28;20109;-56
2020/12/14 04:44:12;;;;;;;13.10;2.72;;;24.90;68.60;;;;;;5105532;28;20019;-56
2020/12/14 04:46:41;;;;;;;10.75;2.38;;;24.80;68.80;;;;;;5109411;28;20447;-56
2020/12/14 04:49:09;;;;;;;11.30;2.90;;;24.80;69.10;;;;;;5109026;28;20078;-58
2020/12/14 04:51:38;;;;;;;9.27;2.83;;;24.80;69.20;;;;;;5109083;28;21290;-58
2020/12/14 04:54:09;;;;;;;9.80;2.90;;;24.70;69.10;;;;;;5105939;28;20074;-59
2020/12/14 04:56:42;;;;;;;10.23;2.80;;;24.70;69.20;;;;;;5108847;28;20482;-60
2020/12/14 04:59:11;;;;;;;20.92;4.35;;;24.70;71.00;;;;;;5109154;28;20034;-58
2020/12/14 05:01:38;;;;;;;23.83;4.88;;;24.50;71.00;;;;;;5108988;28;20023;-54
2020/12/14 05:04:05;;;;;;;19.48;4.60;;;24.20;73.00;;;;;;5105455;28;20028;-55
2020/12/14 05:07:05;;;;;;;23.27;5.28;;;23.90;74.50;;;;;;5108361;28;20020;-58
2020/12/14 05:09:32;;;;;;;24.40;4.15;;;23.80;73.20;;;;;;5054037;28;20038;-52
2020/12/14 05:12:00;;;;;;;31.05;4.95;;;24.00;74.50;;;;;;5106382;28;20023;-56
2020/12/14 05:14:30;;;;;;;18.23;4.35;;;24.00;74.50;;;;;;5108737;28;20501;-55
2020/12/14 05:16:58;;;;;;;22.88;5.00;;;24.00;72.90;;;;;;5086436;28;20465;-59
2020/12/14 05:19:27;;;;;;;28.00;5.25;;;24.10;72.70;;;;;;5107429;28;20574;-57
2020/12/14 05:21:59;;;;;;;30.30;5.47;;;24.20;72.40;;;;;;5105442;28;20085;-53
2020/12/14 05:24:29;;;;;;;20.50;4.35;;;24.00;72.40;;;;;;5089648;28;20024;-59
2020/12/14 05:26:59;;;;;;;24.05;5.07;;;24.00;71.70;;;;;;5108049;28;20103;-60
2020/12/14 05:29:28;;;;;;;21.55;5.32;;;24.10;72.10;;;;;;5108177;28;20456;-58
2020/12/14 05:32:05;;;;;;;21.65;4.82;;;24.30;71.80;;;;;;5106115;28;20096;-62
2020/12/14 05:34:33;;;;;;;29.13;4.75;;;24.30;71.40;;;;;;5108392;28;20446;-55
2020/12/14 05:37:03;;;;;;;22.23;4.80;;;24.30;70.70;;;;;;5089666;28;20408;-61
2020/12/14 05:39:30;;;;;;;23.52;6.10;;;24.20;71.50;;;;;;5107125;28;20020;-52
2020/12/14 05:42:23;;;;;;;34.05;15.30;;;24.10;72.00;;;;;;5087493;28;20027;-47
2020/12/14 05:44:51;;;;;;;23.70;13.20;;;24.30;71.60;;;;;;5107085;28;20358;-52
2020/12/14 05:47:29;;;;;;;27.83;10.73;;;24.40;71.00;;;;;;5106983;28;20039;-49
2020/12/14 05:50:01;;;;;;;41.97;19.35;;;24.40;69.70;;;;;;5111108;28;20036;-51
2020/12/14 05:52:33;;;;;;;22.00;7.32;;;24.50;70.00;;;;;;5110182;28;20027;-55
2020/12/14 05:55:01;;;;;;;30.55;7.65;;;24.50;69.70;;;;;;5110743;28;20492;-51
2020/12/14 05:57:38;;;;;;;28.45;6.28;;;24.50;69.60;;;;;;5111500;28;20035;-51
2020/12/14 06:00:07;;;;;;;30.48;5.63;;;24.60;69.30;;;;;;5110803;28;20030;-55
2020/12/14 06:02:35;;;;;;;28.05;5.90;;;24.60;69.40;;;;;;5110853;28;20031;-56
2020/12/14 06:05:05;;;;;;;18.75;4.93;;;24.60;69.30;;;;;;5111603;28;20099;-50
2020/12/14 06:07:34;;;;;;;16.42;5.05;;;24.50;69.30;;;;;;5111088;28;20024;-57
2020/12/14 06:10:12;;;;;;;21.25;4.72;;;24.50;69.50;;;;;;5111120;28;20509;-56
2020/12/14 06:12:47;;;;;;;27.42;5.85;;;24.50;68.90;;;;;;5115380;28;20019;-63
2020/12/14 06:15:17;;;;;;;18.83;5.55;;;24.50;69.00;;;;;;5114409;28;20027;-59
2020/12/14 06:17:47;;;;;;;15.13;5.05;;;24.50;69.20;;;;;;5115197;28;20055;-58
2020/12/14 06:20:23;;;;;;;20.33;5.70;;;24.50;69.40;;;;;;5115336;28;20107;-62
2020/12/14 06:23:10;;;;;;;23.67;5.25;;;24.50;69.90;;;;;;5115670;28;20551;-58
2020/12/14 06:25:39;;;;;;;14.48;4.03;;;24.50;70.10;;;;;;5115406;28;20046;-56
2020/12/14 06:28:31;;;;;;;19.08;4.95;;;24.50;69.80;;;;;;5115183;28;20481;-59
2020/12/14 06:30:59;;;;;;;15.43;4.80;;;24.50;70.20;;;;;;5114836;28;20145;-61
2020/12/14 06:33:36;;;;;;;20.30;5.55;;;24.50;70.20;;;;;;5114887;28;20028;-55
2020/12/14 06:36:23;;;;;;;21.92;5.57;;;24.50;70.10;;;;;;5105370;27;20032;-57
2020/12/14 06:38:52;;;;;;;28.90;5.57;;;24.40;69.70;;;;;;5108949;27;20550;-56
2020/12/14 06:41:21;;;;;;;24.20;5.68;;;24.40;70.00;;;;;;5093351;28;20404;-59
2020/12/14 06:43:50;;;;;;;22.77;7.72;;;24.50;68.20;;;;;;5111690;28;20031;-63
2020/12/14 06:46:28;;;;;;;38.13;19.63;;;24.30;70.00;;;;;;5093068;28;20481;-55
2020/12/14 06:48:56;;;;;;;42.10;18.83;;;24.40;70.10;;;;;;5107839;28;20027;-63
2020/12/14 06:51:23;;;;;;;26.50;9.30;;;24.30;70.40;;;;;;5111773;28;20023;-60
2020/12/14 06:53:52;;;;;;;33.50;10.55;;;24.00;73.50;;;;;;5109609;27;20104;-55
2020/12/14 06:56:29;;;;;;;42.85;25.08;;;23.90;75.40;;;;;;5110977;28;20023;-54
2020/12/14 06:58:56;;;;;;;32.67;8.27;;;23.80;74.80;;;;;;5105460;28;20024;-57
2020/12/14 07:01:38;;;;;;;40.60;17.60;;;23.70;78.80;;;;;;5111209;28;20028;-60
2020/12/14 07:04:18;;;;;;;41.60;11.38;;;23.70;76.40;;;;;;5109362;28;20117;-56
2020/12/14 07:06:45;;;;;;;54.40;33.38;;;23.50;77.10;;;;;;5111177;28;20033;-58
2020/12/14 07:09:39;;;;;;;48.45;29.02;;;23.60;76.00;;;;;;5106990;28;20031;-60
2020/12/14 07:12:12;;;;;;;37.95;13.55;;;23.70;75.40;;;;;;5109438;28;20051;-58
2020/12/14 07:14:46;;;;;;;46.50;22.88;;;23.60;76.80;;;;;;5109828;28;20052;-54
2020/12/14 07:17:30;;;;;;;44.42;21.75;;;23.70;75.10;;;;;;5091282;28;20031;-48
2020/12/14 07:19:59;;;;;;;51.40;22.50;;;23.90;74.50;;;;;;5106577;28;20032;-55
2020/12/14 07:22:47;;;;;;;52.05;24.98;;;24.00;74.00;;;;;;5092186;28;20027;-52
2020/12/14 07:25:24;;;;;;;45.67;23.75;;;24.10;73.70;;;;;;5109271;28;20120;-50
2020/12/14 07:27:52;;;;;;;42.80;21.92;;;24.10;73.40;;;;;;5110611;28;20023;-53
2020/12/14 07:30:19;;;;;;;38.08;16.60;;;24.10;73.20;;;;;;5108500;27;20610;-52
2020/12/14 07:32:47;;;;;;;46.05;19.90;;;24.10;73.10;;;;;;5109945;28;21308;-50
2020/12/14 07:35:15;;;;;;;34.17;13.02;;;24.20;73.20;;;;;;5109650;28;20397;-49
2020/12/14 07:37:43;;;;;;;34.15;14.75;;;24.10;73.10;;;;;;5110653;27;20042;-46
2020/12/14 07:40:14;;;;;;;36.47;15.80;;;24.10;73.20;;;;;;5108936;27;20015;-51
2020/12/14 07:42:45;;;;;;;33.00;15.65;;;24.10;73.50;;;;;;5110456;28;20035;-49
2020/12/14 07:45:12;;;;;;;33.90;14.00;;;24.10;73.40;;;;;;5110748;28;20452;-48
2020/12/14 07:47:41;;;;;;;31.48;11.93;;;24.10;73.80;;;;;;5092243;28;20075;-49
2020/12/14 07:50:14;;;;;;;31.83;9.98;;;24.10;74.00;;;;;;5106440;28;20481;-51
2020/12/14 07:52:42;;;;;;;31.35;11.00;;;24.10;73.40;;;;;;5109936;28;20030;-51
2020/12/14 07:55:14;;;;;;;29.40;11.55;;;24.10;73.00;;;;;;5110464;28;20019;-51
2020/12/14 07:57:47;;;;;;;29.75;9.07;;;24.10;73.60;;;;;;5091372;28;20077;-51
2020/12/14 08:00:23;;;;;;;26.77;9.68;;;24.10;73.90;;;;;;5107082;28;20050;-50
2020/12/14 08:02:51;;;;;;;24.38;9.15;;;24.10;73.60;;;;;;5109471;28;20093;-48
2020/12/14 08:05:20;;;;;;;25.27;8.23;;;24.10;73.80;;;;;;5108858;28;20092;-54
2020/12/14 08:07:48;;;;;;;25.63;7.03;;;24.10;73.20;;;;;;5109034;28;20027;-54
2020/12/14 08:10:18;;;;;;;23.88;9.52;;;24.00;73.10;;;;;;5105775;28;20536;-53
2020/12/14 08:12:46;;;;;;;25.00;6.47;;;24.00;73.50;;;;;;5091626;28;20047;-58
2020/12/14 08:15:22;;;;;;;27.40;6.90;;;24.00;73.70;;;;;;5108674;28;20445;-56
2020/12/14 08:17:50;;;;;;;22.42;6.85;;;23.90;73.50;;;;;;5108204;27;20157;-58
2020/12/14 08:20:34;;;;;;;21.45;6.78;;;24.00;73.80;;;;;;5099524;28;20066;-51
2020/12/14 08:23:16;;;;;;;24.75;5.90;;;24.00;74.20;;;;;;5107418;28;20062;-56
2020/12/14 08:25:50;;;;;;;25.63;6.85;;;24.10;73.90;;;;;;5110141;28;20039;-54
2020/12/14 08:28:36;;;;;;;19.60;5.35;;;24.10;74.60;;;;;;5108829;28;20035;-49
2020/12/14 08:31:09;;;;;;;25.63;6.13;;;24.10;74.10;;;;;;5109204;27;20094;-54
2020/12/14 08:33:56;;;;;;;21.58;5.63;;;24.10;74.80;;;;;;5107311;28;20103;-49
2020/12/14 08:36:25;;;;;;;22.55;5.95;;;24.10;74.20;;;;;;5108079;28;20091;-54
2020/12/14 08:38:53;;;;;;;32.55;6.10;;;24.10;75.50;;;;;;5086591;28;20028;-56
2020/12/14 08:41:23;;;;;;;23.77;5.68;;;24.10;74.00;;;;;;5110599;28;20069;-57
2020/12/14 08:43:56;;;;;;;22.52;6.45;;;24.10;74.80;;;;;;5110276;28;20405;-57
2020/12/14 08:46:29;;;;;;;23.92;5.88;;;24.10;76.00;;;;;;5110590;28;20061;-55
2020/12/14 08:48:59;;;;;;;23.70;6.57;;;24.20;76.70;;;;;;5112461;28;20031;-59
2020/12/14 08:51:27;;;;;;;24.00;5.85;;;24.20;77.50;;;;;;5111735;28;20031;-57
2020/12/14 08:54:09;;;;;;;38.03;8.13;;;24.20;76.80;;;;;;5112645;28;20020;-57
2020/12/14 08:56:37;;;;;;;29.52;6.18;;;24.30;78.60;;;;;;5112490;28;20130;-58
2020/12/14 08:59:04;;;;;;;31.30;7.05;;;24.30;78.70;;;;;;5111973;28;20183;-56
2020/12/14 09:01:33;;;;;;;32.05;7.03;;;24.30;79.50;;;;;;5111933;28;20058;-57
2020/12/14 09:04:03;;;;;;;43.05;8.20;;;24.30;79.40;;;;;;5093932;28;20023;-57
2020/12/14 09:06:37;;;;;;;35.38;6.63;;;24.40;80.50;;;;;;5112288;28;20473;-55
2020/12/14 09:09:11;;;;;;;24.15;5.72;;;24.40;80.90;;;;;;5111581;28;20104;-59
2020/12/14 09:11:51;;;;;;;43.95;7.15;;;24.50;81.30;;;;;;5111926;28;20050;-58
2020/12/14 09:14:26;;;;;;;28.63;6.53;;;24.50;81.40;;;;;;5112494;28;20054;-56
2020/12/14 09:16:57;;;;;;;20.05;6.25;;;24.60;82.00;;;;;;5112438;28;20023;-56
2020/12/14 09:19:27;;;;;;;19.20;5.95;;;24.60;81.40;;;;;;5111754;28;20134;-59
2020/12/14 09:21:55;;;;;;;28.05;7.18;;;24.60;81.50;;;;;;5112241;28;20039;-57
2020/12/14 09:24:28;;;;;;;24.15;5.68;;;24.60;80.80;;;;;;5112207;28;20023;-55
2020/12/14 09:27:04;;;;;;;25.88;6.18;;;24.60;80.40;;;;;;5112059;28;20019;-58
2020/12/14 09:29:33;;;;;;;25.80;6.80;;;24.60;80.80;;;;;;5111765;28;20156;-60
2020/12/14 09:32:01;;;;;;;26.10;6.18;;;24.60;81.30;;;;;;5112007;28;20031;-58
2020/12/14 09:34:28;;;;;;;29.67;6.40;;;24.60;79.80;;;;;;5112081;28;20074;-59
2020/12/14 09:36:59;;;;;;;25.38;6.40;;;24.60;82.40;;;;;;5112036;28;20028;-57
2020/12/14 09:39:28;;;;;;;33.15;6.78;;;24.60;82.50;;;;;;5111121;28;20505;-53
2020/12/14 09:41:57;;;;;;;28.52;6.03;;;24.60;82.90;;;;;;5111063;28;20414;-56
2020/12/14 09:44:29;;;;;;;24.83;5.70;;;24.60;81.50;;;;;;5115398;28;20024;-57
2020/12/14 09:46:55;;;;;;;;;;;24.60;81.90;;;;;;5111937;28;20149;-52
2020/12/14 09:49:23;;;;;;;22.13;5.45;;;24.50;79.90;;;;;;5111113;28;19927;-57
2020/12/14 09:51:50;;;;;;;24.80;6.03;;;24.20;79.70;;;;;;5111963;28;20039;-59
2020/12/14 09:54:18;;;;;;;17.60;4.57;;;24.10;81.10;;;;;;5111979;28;20020;-58
2020/12/14 09:56:46;;;;;;;20.13;5.10;;;24.10;80.40;;;;;;5112141;28;20056;-63
2020/12/14 09:59:13;;;;;;;18.13;5.20;;;24.10;80.10;;;;;;5112271;28;20102;-60
2020/12/14 10:01:40;;;;;;;18.98;5.43;;;24.10;79.80;;;;;;5112338;28;20474;-59
2020/12/14 10:04:08;;;;;;;20.92;4.85;;;24.10;80.00;;;;;;5104420;28;20028;-58
2020/12/14 10:06:36;;;;;;;20.73;6.30;;;24.10;80.10;;;;;;5108459;28;20036;-62
2020/12/14 10:09:03;;;;;;;31.85;6.60;;;24.10;79.80;;;;;;5089981;28;20028;-61
2020/12/14 10:11:34;;;;;;;27.73;6.88;;;24.10;79.70;;;;;;5107484;28;20044;-57
2020/12/14 10:14:02;;;;;;;27.55;7.50;;;24.10;79.50;;;;;;5109003;28;20414;-59
2020/12/14 10:16:30;;;;;;;34.50;7.43;;;24.10;79.60;;;;;;5108018;28;20472;-63
2020/12/14 10:18:59;;;;;;;31.30;8.07;;;24.10;79.50;;;;;;5108808;28;20063;-63
2020/12/14 10:21:26;;;;;;;35.00;7.50;;;24.10;79.20;;;;;;5106966;28;20031;-60
2020/12/14 10:23:54;;;;;;;24.35;6.60;;;24.10;79.00;;;;;;5106970;28;20038;-57
2020/12/14 10:26:21;;;;;;;27.45;8.70;;;24.00;78.90;;;;;;5107663;28;20020;-61
2020/12/14 10:28:49;;;;;;;30.20;7.13;;;24.00;78.80;;;;;;5107833;28;20120;-59
2020/12/14 10:31:16;;;;;;;27.40;7.18;;;24.00;78.80;;;;;;5108558;28;20046;-62
2020/12/14 10:33:47;;;;;;;27.83;7.07;;;24.10;78.90;;;;;;5104670;28;20019;-53
2020/12/14 10:36:18;;;;;;;25.52;6.65;;;24.00;78.80;;;;;;5108564;28;20036;-58
2020/12/14 10:38:47;;;;;;;28.63;8.88;;;24.00;78.70;;;;;;5108895;28;20488;-57
2020/12/14 10:41:18;;;;;;;24.83;7.32;;;24.00;78.70;;;;;;5107572;28;20088;-61
2020/12/14 10:43:46;;;;;;;29.10;7.13;;;24.00;78.70;;;;;;5107153;28;20087;-57
2020/12/14 10:46:17;;;;;;;23.90;6.93;;;23.90;78.60;;;;;;5109902;28;20047;-62
2020/12/14 10:48:44;;;;;;;23.77;6.68;;;23.90;78.60;;;;;;5108733;28;20094;-61
2020/12/14 10:51:12;;;;;;;21.63;6.43;;;23.90;78.60;;;;;;5108485;28;20028;-60
2020/12/14 10:53:39;;;;;;;17.83;5.47;;;23.90;78.50;;;;;;5104737;28;20416;-60
2020/12/14 10:56:07;;;;;;;29.13;6.47;;;23.90;78.50;;;;;;5107722;28;20020;-59
2020/12/14 10:58:34;;;;;;;24.63;6.57;;;23.90;79.20;;;;;;5112172;27;20016;-59
2020/12/14 11:01:02;;;;;;;18.05;5.72;;;23.90;78.50;;;;;;5112448;28;20028;-61
2020/12/14 11:03:29;;;;;;;21.92;5.72;;;23.90;78.40;;;;;;5108340;28;20027;-62
2020/12/14 11:05:56;;;;;;;20.90;6.35;;;23.90;78.50;;;;;;5111763;28;20107;-60
2020/12/14 11:08:24;;;;;;;22.98;6.97;;;23.80;78.60;;;;;;5108559;28;20438;-60
2020/12/14 11:10:51;;;;;;;17.45;6.25;;;23.80;78.50;;;;;;5111949;28;20497;-60
2020/12/14 11:13:19;;;;;;;22.08;5.97;;;23.80;78.50;;;;;;5107722;28;20027;-63
2020/12/14 11:15:46;;;;;;;18.63;5.88;;;23.80;78.40;;;;;;5111593;28;20026;-61
2020/12/14 11:18:14;;;;;;;18.30;6.03;;;23.80;78.40;;;;;;5112068;28;20126;-62
2020/12/14 11:20:41;;;;;;;21.02;6.22;;;23.80;78.40;;;;;;5112411;28;20019;-61
2020/12/14 11:23:09;;;;;;;24.88;6.18;;;23.80;78.30;;;;;;5089279;28;20028;-64
2020/12/14 11:25:36;;;;;;;20.67;6.00;;;23.80;78.30;;;;;;5111891;28;20020;-61
2020/12/14 11:28:04;;;;;;;21.58;6.00;;;23.80;78.30;;;;;;5111787;28;20127;-57
2020/12/14 11:30:31;;;;;;;20.00;5.60;;;23.70;78.20;;;;;;5111168;28;20066;-58
2020/12/14 11:32:59;;;;;;;17.83;5.88;;;23.80;78.10;;;;;;5089473;28;20031;-61
2020/12/14 11:35:26;;;;;;;17.75;5.90;;;23.80;78.10;;;;;;5111373;28;20043;-61
2020/12/14 11:37:53;;;;;;;20.17;6.10;;;23.70;77.80;;;;;;5109475;28;20031;-61
2020/12/14 11:40:21;;;;;;;19.77;5.95;;;23.70;78.00;;;;;;5093776;28;20031;-59
2020/12/14 11:42:48;;;;;;;16.63;6.18;;;23.70;78.00;;;;;;5108245;28;20061;-62
2020/12/14 11:45:16;;;;;;;15.90;5.57;;;23.70;78.00;;;;;;5111806;28;20031;-60
2020/12/14 11:47:43;;;;;;;23.05;6.03;;;23.70;78.00;;;;;;5111271;28;20023;-59
2020/12/14 11:50:10;;;;;;;24.00;7.03;;;23.70;78.30;;;;;;5111281;28;20564;-63
2020/12/14 11:52:38;;;;;;;15.10;5.45;;;23.70;78.00;;;;;;5108044;28;20042;-61
2020/12/14 11:55:06;;;;;;;24.45;6.82;;;23.70;77.90;;;;;;5110465;28;20046;-59
2020/12/14 11:57:33;;;;;;;16.02;5.20;;;23.70;77.90;;;;;;5110898;28;20569;-67
2020/12/14 12:00:01;;;;;;;18.48;5.82;;;23.70;77.70;;;;;;5093264;28;20157;-61
2020/12/14 12:02:30;;;;;;;23.88;6.07;;;23.70;77.80;;;;;;5108209;28;20143;-63
2020/12/14 12:04:57;;;;;;;16.90;5.72;;;23.70;77.80;;;;;;5110218;28;20031;-59
2020/12/14 12:07:25;;;;;;;13.23;5.55;;;23.70;77.70;;;;;;5110729;28;20024;-59
2020/12/14 12:09:52;;;;;;;14.52;4.78;;;23.70;77.60;;;;;;5112495;28;20030;-64
2020/12/14 12:12:20;;;;;;;17.73;5.72;;;23.70;77.50;;;;;;5111974;28;20034;-62
2020/12/14 12:14:47;;;;;;;12.82;4.60;;;23.70;77.40;;;;;;5112342;28;20110;-60
2020/12/14 12:17:14;;;;;;;18.55;5.53;;;23.70;78.00;;;;;;5112602;28;20043;-63
2020/12/14 12:19:42;;;;;;;19.33;5.15;;;23.70;77.40;;;;;;5113711;28;20069;-59
2020/12/14 12:22:09;;;;;;;17.02;4.93;;;23.70;77.40;;;;;;5113712;28;20050;-61
2020/12/14 12:24:36;;;;;;;17.55;4.70;;;23.60;77.30;;;;;;5113528;28;20028;-61
2020/12/14 12:27:04;;;;;;;12.27;4.55;;;23.60;77.30;;;;;;5113244;28;20385;-63
2020/12/14 12:29:31;;;;;;;14.27;4.82;;;23.60;77.30;;;;;;5078204;28;20073;-58
2020/12/14 12:31:58;;;;;;;20.42;5.05;;;23.60;77.30;;;;;;5113095;28;20373;-59
2020/12/14 12:34:27;;;;;;;12.93;4.65;;;23.60;77.30;;;;;;5113156;28;20473;-61
2020/12/14 12:36:58;;;;;;;13.18;4.80;;;23.60;77.20;;;;;;5113251;28;20023;-57
2020/12/14 12:39:26;;;;;;;13.70;4.45;;;23.60;77.30;;;;;;5112967;28;20024;-60
2020/12/14 12:41:55;;;;;;;18.80;5.72;;;23.60;77.30;;;;;;5112050;28;20028;-59
2020/12/14 12:44:23;;;;;;;15.13;5.07;;;23.50;77.30;;;;;;5113203;28;20067;-63
2020/12/14 12:46:50;;;;;;;14.70;5.45;;;23.50;77.30;;;;;;5113272;28;20106;-61
2020/12/14 12:49:18;;;;;;;15.75;5.05;;;23.50;77.20;;;;;;5113339;28;20359;-58